sensor_id;sensor_type;location;lat;lon;timestamp;P1;durP1;ratioP1;P2;durP2;ratioP2
52534;SDS011;38443;53.164;5.802;2024-01-11T00:18:05;23.60;;;10.43;;
52534;SDS011;38443;53.164;5.802;2024-01-11T00:20:31;20.83;;;10.70;;
52534;SDS011;38443;53.164;5.802;2024-01-11T00:22:56;22.90;;;12.00;;
52534;SDS011;38443;53.164;5.802;2024-01-11T00:27:47;27.10;;;11.07;;
52534;SDS011;38443;53.164;5.802;2024-01-11T00:32:37;19.40;;;9.80;;
52534;SDS011;38443;53.164;5.802;2024-01-11T00:37:28;24.45;;;11.63;;
52534;SDS011;38443;53.164;5.802;2024-01-11T00:42:19;25.48;;;12.23;;
52534;SDS011;38443;53.164;5.802;2024-01-11T00:47:10;26.30;;;12.10;;
52534;SDS011;38443;53.164;5.802;2024-01-11T00:52:01;30.50;;;12.73;;
52534;SDS011;38443;53.164;5.802;2024-01-11T00:56:51;30.65;;;12.73;;
52534;SDS011;38443;53.164;5.802;2024-01-11T00:59:17;30.40;;;12.68;;
52534;SDS011;38443;53.164;5.802;2024-01-11T01:04:14;27.13;;;12.73;;
52534;SDS011;38443;53.164;5.802;2024-01-11T01:09:06;29.10;;;11.85;;
52534;SDS011;38443;53.164;5.802;2024-01-11T01:13:56;23.08;;;10.13;;
52534;SDS011;38443;53.164;5.802;2024-01-11T01:18:47;28.55;;;13.68;;
52534;SDS011;38443;53.164;5.802;2024-01-11T01:23:37;27.92;;;11.57;;
52534;SDS011;38443;53.164;5.802;2024-01-11T01:28:28;28.60;;;13.63;;
52534;SDS011;38443;53.164;5.802;2024-01-11T01:30:53;38.40;;;15.32;;
52534;SDS011;38443;53.164;5.802;2024-01-11T01:35:44;26.92;;;11.57;;
52534;SDS011;38443;53.164;5.802;2024-01-11T01:40:34;31.23;;;11.43;;
52534;SDS011;38443;53.164;5.802;2024-01-11T01:42:59;30.52;;;13.43;;
52534;SDS011;38443;53.164;5.802;2024-01-11T01:47:50;29.45;;;12.40;;
52534;SDS011;38443;53.164;5.802;2024-01-11T01:52:41;26.80;;;12.18;;
52534;SDS011;38443;53.164;5.802;2024-01-11T01:55:08;31.55;;;14.48;;
52534;SDS011;38443;53.164;5.802;2024-01-11T01:57:35;34.22;;;14.23;;
52534;SDS011;38443;53.164;5.802;2024-01-11T02:00:01;33.85;;;13.82;;
52534;SDS011;38443;53.164;5.802;2024-01-11T02:02:28;32.22;;;15.13;;
52534;SDS011;38443;53.164;5.802;2024-01-11T02:04:56;32.40;;;14.05;;
52534;SDS011;38443;53.164;5.802;2024-01-11T02:09:49;33.78;;;13.75;;
52534;SDS011;38443;53.164;5.802;2024-01-11T02:14:40;30.98;;;14.18;;
52534;SDS011;38443;53.164;5.802;2024-01-11T02:17:05;34.97;;;14.43;;
52534;SDS011;38443;53.164;5.802;2024-01-11T02:19:31;42.78;;;16.83;;
52534;SDS011;38443;53.164;5.802;2024-01-11T02:21:59;32.30;;;14.77;;
52534;SDS011;38443;53.164;5.802;2024-01-11T02:24:30;33.05;;;14.57;;
52534;SDS011;38443;53.164;5.802;2024-01-11T02:29:25;37.88;;;13.30;;
52534;SDS011;38443;53.164;5.802;2024-01-11T02:34:16;30.35;;;14.95;;
52534;SDS011;38443;53.164;5.802;2024-01-11T02:36:42;29.38;;;14.95;;
52534;SDS011;38443;53.164;5.802;2024-01-11T02:41:32;33.75;;;13.35;;
52534;SDS011;38443;53.164;5.802;2024-01-11T02:43:59;31.33;;;14.70;;
52534;SDS011;38443;53.164;5.802;2024-01-11T02:48:51;29.15;;;13.73;;
52534;SDS011;38443;53.164;5.802;2024-01-11T02:53:42;31.25;;;14.23;;
52534;SDS011;38443;53.164;5.802;2024-01-11T02:58:33;35.30;;;15.18;;
52534;SDS011;38443;53.164;5.802;2024-01-11T03:03:23;33.20;;;14.05;;
52534;SDS011;38443;53.164;5.802;2024-01-11T03:08:14;36.60;;;13.75;;
52534;SDS011;38443;53.164;5.802;2024-01-11T03:13:05;36.60;;;12.95;;
52534;SDS011;38443;53.164;5.802;2024-01-11T03:15:31;32.50;;;14.77;;
52534;SDS011;38443;53.164;5.802;2024-01-11T03:20:22;35.22;;;15.15;;
52534;SDS011;38443;53.164;5.802;2024-01-11T03:22:49;37.55;;;15.82;;
52534;SDS011;38443;53.164;5.802;2024-01-11T03:25:17;39.40;;;16.40;;
52534;SDS011;38443;53.164;5.802;2024-01-11T03:30:08;28.25;;;14.35;;
52534;SDS011;38443;53.164;5.802;2024-01-11T03:34:59;33.60;;;14.93;;
52534;SDS011;38443;53.164;5.802;2024-01-11T03:39:49;36.40;;;15.32;;
52534;SDS011;38443;53.164;5.802;2024-01-11T03:42:15;43.08;;;15.55;;
52534;SDS011;38443;53.164;5.802;2024-01-11T03:47:05;47.25;;;16.58;;
52534;SDS011;38443;53.164;5.802;2024-01-11T03:51:56;33.08;;;13.38;;
52534;SDS011;38443;53.164;5.802;2024-01-11T03:56:47;37.90;;;15.13;;
52534;SDS011;38443;53.164;5.802;2024-01-11T04:01:42;33.40;;;14.37;;
52534;SDS011;38443;53.164;5.802;2024-01-11T04:04:08;40.65;;;16.00;;
52534;SDS011;38443;53.164;5.802;2024-01-11T04:08:58;30.80;;;13.98;;
52534;SDS011;38443;53.164;5.802;2024-01-11T04:13:52;35.35;;;13.85;;
52534;SDS011;38443;53.164;5.802;2024-01-11T04:18:42;40.97;;;15.45;;
52534;SDS011;38443;53.164;5.802;2024-01-11T04:23:44;32.15;;;13.70;;
52534;SDS011;38443;53.164;5.802;2024-01-11T04:28:36;31.05;;;13.15;;
52534;SDS011;38443;53.164;5.802;2024-01-11T04:31:02;36.13;;;13.80;;
52534;SDS011;38443;53.164;5.802;2024-01-11T04:35:52;34.47;;;13.18;;
52534;SDS011;38443;53.164;5.802;2024-01-11T04:40:43;42.17;;;14.93;;
52534;SDS011;38443;53.164;5.802;2024-01-11T04:45:34;43.30;;;16.75;;
52534;SDS011;38443;53.164;5.802;2024-01-11T04:47:59;42.45;;;17.35;;
52534;SDS011;38443;53.164;5.802;2024-01-11T04:52:50;41.42;;;14.65;;
52534;SDS011;38443;53.164;5.802;2024-01-11T04:57:41;27.00;;;11.98;;
52534;SDS011;38443;53.164;5.802;2024-01-11T05:02:31;34.60;;;14.07;;
52534;SDS011;38443;53.164;5.802;2024-01-11T05:07:22;37.58;;;14.65;;
52534;SDS011;38443;53.164;5.802;2024-01-11T05:12:12;32.60;;;13.93;;
52534;SDS011;38443;53.164;5.802;2024-01-11T05:17:03;42.05;;;15.48;;
52534;SDS011;38443;53.164;5.802;2024-01-11T05:21:54;37.38;;;16.70;;
52534;SDS011;38443;53.164;5.802;2024-01-11T05:26:45;37.30;;;14.23;;
52534;SDS011;38443;53.164;5.802;2024-01-11T05:29:10;35.63;;;17.17;;
52534;SDS011;38443;53.164;5.802;2024-01-11T05:34:02;40.13;;;15.55;;
52534;SDS011;38443;53.164;5.802;2024-01-11T05:38:52;31.35;;;13.00;;
52534;SDS011;38443;53.164;5.802;2024-01-11T05:43:43;34.05;;;15.95;;
52534;SDS011;38443;53.164;5.802;2024-01-11T05:46:09;39.55;;;16.90;;
52534;SDS011;38443;53.164;5.802;2024-01-11T05:50:59;32.72;;;15.65;;
52534;SDS011;38443;53.164;5.802;2024-01-11T05:55:52;40.70;;;17.48;;
52534;SDS011;38443;53.164;5.802;2024-01-11T06:00:43;35.90;;;15.98;;
52534;SDS011;38443;53.164;5.802;2024-01-11T06:05:33;41.97;;;17.73;;
52534;SDS011;38443;53.164;5.802;2024-01-11T06:10:24;38.35;;;17.70;;
52534;SDS011;38443;53.164;5.802;2024-01-11T06:15:14;43.80;;;16.67;;
52534;SDS011;38443;53.164;5.802;2024-01-11T06:20:05;32.63;;;14.20;;
52534;SDS011;38443;53.164;5.802;2024-01-11T06:24:57;34.67;;;15.98;;
52534;SDS011;38443;53.164;5.802;2024-01-11T06:27:24;30.30;;;15.35;;
52534;SDS011;38443;53.164;5.802;2024-01-11T06:32:15;40.38;;;17.27;;
52534;SDS011;38443;53.164;5.802;2024-01-11T06:37:10;36.05;;;17.27;;
52534;SDS011;38443;53.164;5.802;2024-01-11T06:42:01;36.63;;;16.97;;
52534;SDS011;38443;53.164;5.802;2024-01-11T06:46:51;44.38;;;16.55;;
52534;SDS011;38443;53.164;5.802;2024-01-11T06:51:42;41.65;;;16.95;;
52534;SDS011;38443;53.164;5.802;2024-01-11T06:56:32;37.22;;;15.55;;
52534;SDS011;38443;53.164;5.802;2024-01-11T07:01:23;38.75;;;16.67;;
52534;SDS011;38443;53.164;5.802;2024-01-11T07:06:14;38.47;;;16.70;;
52534;SDS011;38443;53.164;5.802;2024-01-11T07:11:05;39.05;;;17.60;;
52534;SDS011;38443;53.164;5.802;2024-01-11T07:15:59;44.97;;;19.40;;
52534;SDS011;38443;53.164;5.802;2024-01-11T07:20:52;36.17;;;15.98;;
52534;SDS011;38443;53.164;5.802;2024-01-11T07:23:18;47.58;;;20.23;;
52534;SDS011;38443;53.164;5.802;2024-01-11T07:28:08;42.77;;;18.10;;
52534;SDS011;38443;53.164;5.802;2024-01-11T07:32:59;40.90;;;17.55;;
52534;SDS011;38443;53.164;5.802;2024-01-11T07:37:49;44.08;;;18.58;;
52534;SDS011;38443;53.164;5.802;2024-01-11T07:42:41;40.05;;;16.55;;
52534;SDS011;38443;53.164;5.802;2024-01-11T07:45:08;41.00;;;19.98;;
52534;SDS011;38443;53.164;5.802;2024-01-11T07:47:35;33.97;;;15.63;;
52534;SDS011;38443;53.164;5.802;2024-01-11T07:50:02;45.25;;;19.63;;
52534;SDS011;38443;53.164;5.802;2024-01-11T07:52:28;40.03;;;18.70;;
52534;SDS011;38443;53.164;5.802;2024-01-11T07:57:19;39.00;;;19.55;;
52534;SDS011;38443;53.164;5.802;2024-01-11T08:02:09;39.58;;;18.70;;
52534;SDS011;38443;53.164;5.802;2024-01-11T08:07:00;39.30;;;17.83;;
52534;SDS011;38443;53.164;5.802;2024-01-11T08:09:26;43.30;;;19.33;;
52534;SDS011;38443;53.164;5.802;2024-01-11T08:14:19;40.00;;;18.40;;
52534;SDS011;38443;53.164;5.802;2024-01-11T08:16:47;43.60;;;19.42;;
52534;SDS011;38443;53.164;5.802;2024-01-11T08:21:41;39.28;;;17.77;;
52534;SDS011;38443;53.164;5.802;2024-01-11T08:26:32;36.75;;;18.15;;
52534;SDS011;38443;53.164;5.802;2024-01-11T08:31:24;36.92;;;15.48;;
52534;SDS011;38443;53.164;5.802;2024-01-11T08:36:15;35.30;;;18.73;;
52534;SDS011;38443;53.164;5.802;2024-01-11T08:41:06;37.58;;;19.48;;
52534;SDS011;38443;53.164;5.802;2024-01-11T08:45:57;36.47;;;17.42;;
52534;SDS011;38443;53.164;5.802;2024-01-11T08:50:48;42.78;;;20.98;;
52534;SDS011;38443;53.164;5.802;2024-01-11T08:55:40;36.35;;;18.73;;
52534;SDS011;38443;53.164;5.802;2024-01-11T09:00:31;41.92;;;18.63;;
52534;SDS011;38443;53.164;5.802;2024-01-11T09:02:57;35.63;;;17.23;;
52534;SDS011;38443;53.164;5.802;2024-01-11T09:07:48;45.03;;;18.90;;
52534;SDS011;38443;53.164;5.802;2024-01-11T09:12:38;40.60;;;18.15;;
52534;SDS011;38443;53.164;5.802;2024-01-11T09:17:29;37.47;;;16.20;;
52534;SDS011;38443;53.164;5.802;2024-01-11T09:22:19;39.95;;;17.83;;
52534;SDS011;38443;53.164;5.802;2024-01-11T09:27:10;39.30;;;18.20;;
52534;SDS011;38443;53.164;5.802;2024-01-11T09:32:01;39.38;;;17.80;;
52534;SDS011;38443;53.164;5.802;2024-01-11T09:36:51;36.25;;;18.45;;
52534;SDS011;38443;53.164;5.802;2024-01-11T09:41:43;34.30;;;14.98;;
52534;SDS011;38443;53.164;5.802;2024-01-11T09:44:16;38.72;;;16.70;;
52534;SDS011;38443;53.164;5.802;2024-01-11T09:49:07;36.00;;;16.52;;
52534;SDS011;38443;53.164;5.802;2024-01-11T09:51:34;35.28;;;18.00;;
52534;SDS011;38443;53.164;5.802;2024-01-11T09:54:03;34.00;;;17.50;;
52534;SDS011;38443;53.164;5.802;2024-01-11T09:58:54;35.28;;;16.35;;
52534;SDS011;38443;53.164;5.802;2024-01-11T10:03:45;34.20;;;15.18;;
52534;SDS011;38443;53.164;5.802;2024-01-11T10:06:13;37.95;;;17.63;;
52534;SDS011;38443;53.164;5.802;2024-01-11T10:08:40;35.22;;;17.00;;
52534;SDS011;38443;53.164;5.802;2024-01-11T10:13:31;32.72;;;15.48;;
52534;SDS011;38443;53.164;5.802;2024-01-11T10:16:07;37.55;;;17.52;;
52534;SDS011;38443;53.164;5.802;2024-01-11T10:18:35;29.70;;;15.00;;
52534;SDS011;38443;53.164;5.802;2024-01-11T10:21:01;33.88;;;16.33;;
52534;SDS011;38443;53.164;5.802;2024-01-11T10:23:27;30.27;;;15.35;;
52534;SDS011;38443;53.164;5.802;2024-01-11T10:25:55;30.17;;;15.00;;
52534;SDS011;38443;53.164;5.802;2024-01-11T10:28:21;35.08;;;15.77;;
52534;SDS011;38443;53.164;5.802;2024-01-11T10:33:12;31.95;;;15.80;;
52534;SDS011;38443;53.164;5.802;2024-01-11T10:38:02;36.75;;;15.32;;
52534;SDS011;38443;53.164;5.802;2024-01-11T10:40:34;34.60;;;15.77;;
52534;SDS011;38443;53.164;5.802;2024-01-11T10:45:26;27.73;;;13.73;;
52534;SDS011;38443;53.164;5.802;2024-01-11T10:50:24;25.00;;;12.80;;
52534;SDS011;38443;53.164;5.802;2024-01-11T10:53:12;31.05;;;13.90;;
52534;SDS011;38443;53.164;5.802;2024-01-11T10:55:49;31.25;;;14.68;;
52534;SDS011;38443;53.164;5.802;2024-01-11T11:00:40;27.25;;;13.18;;
52534;SDS011;38443;53.164;5.802;2024-01-11T11:05:31;27.75;;;12.15;;
52534;SDS011;38443;53.164;5.802;2024-01-11T11:08:00;26.02;;;12.32;;
52534;SDS011;38443;53.164;5.802;2024-01-11T11:10:27;21.08;;;11.88;;
52534;SDS011;38443;53.164;5.802;2024-01-11T11:12:54;25.00;;;12.95;;
52534;SDS011;38443;53.164;5.802;2024-01-11T11:15:22;24.45;;;13.45;;
52534;SDS011;38443;53.164;5.802;2024-01-11T11:17:48;27.52;;;12.98;;
52534;SDS011;38443;53.164;5.802;2024-01-11T11:20:15;24.40;;;12.80;;
52534;SDS011;38443;53.164;5.802;2024-01-11T11:22:41;32.60;;;15.32;;
52534;SDS011;38443;53.164;5.802;2024-01-11T11:25:08;23.88;;;12.63;;
52534;SDS011;38443;53.164;5.802;2024-01-11T11:27:35;25.85;;;14.07;;
52534;SDS011;38443;53.164;5.802;2024-01-11T11:32:38;25.40;;;11.97;;
52534;SDS011;38443;53.164;5.802;2024-01-11T11:35:07;22.30;;;11.02;;
52534;SDS011;38443;53.164;5.802;2024-01-11T11:40:01;16.98;;;10.20;;
52534;SDS011;38443;53.164;5.802;2024-01-11T11:44:55;21.10;;;10.13;;
52534;SDS011;38443;53.164;5.802;2024-01-11T11:47:22;24.25;;;10.27;;
52534;SDS011;38443;53.164;5.802;2024-01-11T11:50:04;20.13;;;9.32;;
52534;SDS011;38443;53.164;5.802;2024-01-11T11:52:32;21.63;;;10.63;;
52534;SDS011;38443;53.164;5.802;2024-01-11T11:55:02;21.17;;;10.50;;
52534;SDS011;38443;53.164;5.802;2024-01-11T11:57:28;18.83;;;10.68;;
52534;SDS011;38443;53.164;5.802;2024-01-11T12:02:31;18.50;;;9.55;;
52534;SDS011;38443;53.164;5.802;2024-01-11T12:04:57;20.80;;;10.60;;
52534;SDS011;38443;53.164;5.802;2024-01-11T12:09:48;23.00;;;10.02;;
52534;SDS011;38443;53.164;5.802;2024-01-11T12:12:15;22.48;;;10.73;;
52534;SDS011;38443;53.164;5.802;2024-01-11T12:14:42;15.75;;;9.63;;
52534;SDS011;38443;53.164;5.802;2024-01-11T12:19:34;14.43;;;8.52;;
52534;SDS011;38443;53.164;5.802;2024-01-11T12:24:25;13.85;;;7.75;;
52534;SDS011;38443;53.164;5.802;2024-01-11T12:26:51;18.17;;;7.55;;
52534;SDS011;38443;53.164;5.802;2024-01-11T12:29:18;18.23;;;8.20;;
52534;SDS011;38443;53.164;5.802;2024-01-11T12:34:09;14.45;;;7.57;;
52534;SDS011;38443;53.164;5.802;2024-01-11T12:36:36;14.20;;;8.40;;
52534;SDS011;38443;53.164;5.802;2024-01-11T12:39:03;15.82;;;7.63;;
52534;SDS011;38443;53.164;5.802;2024-01-11T12:41:30;17.08;;;9.00;;
52534;SDS011;38443;53.164;5.802;2024-01-11T12:46:22;16.15;;;7.15;;
52534;SDS011;38443;53.164;5.802;2024-01-11T12:51:15;12.30;;;6.32;;
52534;SDS011;38443;53.164;5.802;2024-01-11T12:53:47;13.50;;;6.57;;
52534;SDS011;38443;53.164;5.802;2024-01-11T12:56:14;18.13;;;6.97;;
52534;SDS011;38443;53.164;5.802;2024-01-11T12:58:41;13.45;;;6.93;;
52534;SDS011;38443;53.164;5.802;2024-01-11T13:03:33;13.93;;;6.75;;
52534;SDS011;38443;53.164;5.802;2024-01-11T13:05:59;16.65;;;6.30;;
52534;SDS011;38443;53.164;5.802;2024-01-11T13:10:50;19.27;;;6.53;;
52534;SDS011;38443;53.164;5.802;2024-01-11T13:15:40;11.77;;;5.47;;
52534;SDS011;38443;53.164;5.802;2024-01-11T13:20:31;13.85;;;4.22;;
52534;SDS011;38443;53.164;5.802;2024-01-11T13:25:42;11.80;;;5.07;;
52534;SDS011;38443;53.164;5.802;2024-01-11T13:28:08;43.03;;;18.13;;
52534;SDS011;38443;53.164;5.802;2024-01-11T13:30:36;24.15;;;8.10;;
52534;SDS011;38443;53.164;5.802;2024-01-11T13:35:27;21.67;;;6.70;;
52534;SDS011;38443;53.164;5.802;2024-01-11T13:40:18;22.95;;;6.75;;
52534;SDS011;38443;53.164;5.802;2024-01-11T13:45:08;18.58;;;6.07;;
52534;SDS011;38443;53.164;5.802;2024-01-11T13:50:00;19.83;;;4.30;;
52534;SDS011;38443;53.164;5.802;2024-01-11T13:54:50;13.50;;;3.97;;
52534;SDS011;38443;53.164;5.802;2024-01-11T13:59:41;22.00;;;4.50;;
52534;SDS011;38443;53.164;5.802;2024-01-11T14:04:32;19.25;;;5.57;;
52534;SDS011;38443;53.164;5.802;2024-01-11T14:09:23;22.88;;;4.88;;
52534;SDS011;38443;53.164;5.802;2024-01-11T14:14:14;21.80;;;4.78;;
52534;SDS011;38443;53.164;5.802;2024-01-11T14:19:05;20.98;;;4.75;;
52534;SDS011;38443;53.164;5.802;2024-01-11T14:23:55;14.63;;;4.30;;
52534;SDS011;38443;53.164;5.802;2024-01-11T14:28:47;23.02;;;5.90;;
52534;SDS011;38443;53.164;5.802;2024-01-11T14:33:37;17.90;;;4.53;;
52534;SDS011;38443;53.164;5.802;2024-01-11T14:38:28;23.67;;;6.40;;
52534;SDS011;38443;53.164;5.802;2024-01-11T14:43:19;24.45;;;5.57;;
52534;SDS011;38443;53.164;5.802;2024-01-11T14:45:46;29.48;;;6.15;;
52534;SDS011;38443;53.164;5.802;2024-01-11T14:50:37;10.97;;;4.57;;
52534;SDS011;38443;53.164;5.802;2024-01-11T14:55:28;13.10;;;4.78;;
52534;SDS011;38443;53.164;5.802;2024-01-11T15:00:19;13.65;;;4.40;;
52534;SDS011;38443;53.164;5.802;2024-01-11T15:05:11;11.70;;;4.20;;
52534;SDS011;38443;53.164;5.802;2024-01-11T15:10:02;16.77;;;3.45;;
52534;SDS011;38443;53.164;5.802;2024-01-11T15:14:52;10.95;;;4.18;;
52534;SDS011;38443;53.164;5.802;2024-01-11T15:19:43;11.90;;;3.80;;
52534;SDS011;38443;53.164;5.802;2024-01-11T15:24:37;10.70;;;3.80;;
52534;SDS011;38443;53.164;5.802;2024-01-11T15:29:27;10.98;;;3.38;;
52534;SDS011;38443;53.164;5.802;2024-01-11T15:34:18;13.07;;;3.90;;
52534;SDS011;38443;53.164;5.802;2024-01-11T15:39:09;13.48;;;4.00;;
52534;SDS011;38443;53.164;5.802;2024-01-11T15:43:59;8.00;;;3.30;;
52534;SDS011;38443;53.164;5.802;2024-01-11T15:48:50;15.05;;;4.20;;
52534;SDS011;38443;53.164;5.802;2024-01-11T15:53:41;6.32;;;3.55;;
52534;SDS011;38443;53.164;5.802;2024-01-11T15:56:08;9.20;;;3.97;;
52534;SDS011;38443;53.164;5.802;2024-01-11T16:00:59;11.90;;;4.03;;
52534;SDS011;38443;53.164;5.802;2024-01-11T16:05:50;10.80;;;4.95;;
52534;SDS011;38443;53.164;5.802;2024-01-11T16:10:40;14.27;;;4.50;;
52534;SDS011;38443;53.164;5.802;2024-01-11T16:15:31;15.93;;;3.72;;
52534;SDS011;38443;53.164;5.802;2024-01-11T16:20:22;12.02;;;4.70;;
52534;SDS011;38443;53.164;5.802;2024-01-11T16:25:13;13.82;;;3.85;;
52534;SDS011;38443;53.164;5.802;2024-01-11T16:30:05;10.25;;;4.00;;
52534;SDS011;38443;53.164;5.802;2024-01-11T16:32:31;11.35;;;3.97;;
52534;SDS011;38443;53.164;5.802;2024-01-11T16:34:57;7.10;;;3.58;;
52534;SDS011;38443;53.164;5.802;2024-01-11T16:39:48;11.60;;;4.72;;
52534;SDS011;38443;53.164;5.802;2024-01-11T16:44:39;6.88;;;4.30;;
52534;SDS011;38443;53.164;5.802;2024-01-11T16:49:30;9.23;;;3.67;;
52534;SDS011;38443;53.164;5.802;2024-01-11T16:54:20;13.27;;;4.60;;
52534;SDS011;38443;53.164;5.802;2024-01-11T16:59:12;7.82;;;4.35;;
52534;SDS011;38443;53.164;5.802;2024-01-11T17:01:40;8.80;;;4.78;;
52534;SDS011;38443;53.164;5.802;2024-01-11T17:06:32;5.78;;;3.85;;
52534;SDS011;38443;53.164;5.802;2024-01-11T17:08:58;7.80;;;3.85;;
52534;SDS011;38443;53.164;5.802;2024-01-11T17:13:49;8.07;;;4.13;;
52534;SDS011;38443;53.164;5.802;2024-01-11T17:18:43;7.55;;;4.13;;
52534;SDS011;38443;53.164;5.802;2024-01-11T17:23:34;7.30;;;3.83;;
52534;SDS011;38443;53.164;5.802;2024-01-11T17:28:24;10.83;;;4.00;;
52534;SDS011;38443;53.164;5.802;2024-01-11T17:33:16;10.35;;;4.38;;
52534;SDS011;38443;53.164;5.802;2024-01-11T17:38:07;7.43;;;4.00;;
52534;SDS011;38443;53.164;5.802;2024-01-11T17:43:00;9.10;;;3.80;;
52534;SDS011;38443;53.164;5.802;2024-01-11T17:45:27;14.10;;;4.68;;
52534;SDS011;38443;53.164;5.802;2024-01-11T17:50:17;6.90;;;4.05;;
52534;SDS011;38443;53.164;5.802;2024-01-11T17:55:08;10.70;;;5.35;;
52534;SDS011;38443;53.164;5.802;2024-01-11T17:57:35;7.22;;;3.80;;
52534;SDS011;38443;53.164;5.802;2024-01-11T18:00:02;9.43;;;4.93;;
52534;SDS011;38443;53.164;5.802;2024-01-11T18:02:28;10.73;;;4.47;;
52534;SDS011;38443;53.164;5.802;2024-01-11T18:07:18;9.80;;;4.17;;
52534;SDS011;38443;53.164;5.802;2024-01-11T18:09:46;7.65;;;3.88;;
52534;SDS011;38443;53.164;5.802;2024-01-11T18:14:37;8.63;;;4.40;;
52534;SDS011;38443;53.164;5.802;2024-01-11T18:19:27;8.05;;;3.90;;
52534;SDS011;38443;53.164;5.802;2024-01-11T18:24:18;10.82;;;4.68;;
52534;SDS011;38443;53.164;5.802;2024-01-11T18:29:08;10.10;;;4.38;;
52534;SDS011;38443;53.164;5.802;2024-01-11T18:33:59;11.98;;;5.43;;
52534;SDS011;38443;53.164;5.802;2024-01-11T18:38:51;13.55;;;4.28;;
52534;SDS011;38443;53.164;5.802;2024-01-11T18:41:22;10.45;;;5.15;;
52534;SDS011;38443;53.164;5.802;2024-01-11T18:46:13;9.55;;;4.50;;
52534;SDS011;38443;53.164;5.802;2024-01-11T18:48:39;8.77;;;4.20;;
52534;SDS011;38443;53.164;5.802;2024-01-11T18:53:31;9.02;;;4.45;;
52534;SDS011;38443;53.164;5.802;2024-01-11T18:58:24;11.23;;;4.93;;
52534;SDS011;38443;53.164;5.802;2024-01-11T19:00:50;8.68;;;5.18;;
52534;SDS011;38443;53.164;5.802;2024-01-11T19:05:41;10.10;;;4.87;;
52534;SDS011;38443;53.164;5.802;2024-01-11T19:10:31;14.13;;;5.17;;
52534;SDS011;38443;53.164;5.802;2024-01-11T19:15:22;8.00;;;4.50;;
52534;SDS011;38443;53.164;5.802;2024-01-11T19:20:13;14.07;;;6.20;;
52534;SDS011;38443;53.164;5.802;2024-01-11T19:25:03;12.57;;;4.80;;
52534;SDS011;38443;53.164;5.802;2024-01-11T19:27:30;14.13;;;5.80;;
52534;SDS011;38443;53.164;5.802;2024-01-11T19:32:21;13.05;;;4.90;;
52534;SDS011;38443;53.164;5.802;2024-01-11T19:37:11;8.40;;;5.10;;
52534;SDS011;38443;53.164;5.802;2024-01-11T19:42:02;11.93;;;5.00;;
52534;SDS011;38443;53.164;5.802;2024-01-11T19:46:53;8.63;;;4.97;;
52534;SDS011;38443;53.164;5.802;2024-01-11T19:51:44;13.90;;;5.28;;
52534;SDS011;38443;53.164;5.802;2024-01-11T19:56:35;18.23;;;5.40;;
52534;SDS011;38443;53.164;5.802;2024-01-11T20:01:26;8.77;;;5.80;;
52534;SDS011;38443;53.164;5.802;2024-01-11T20:06:16;14.67;;;5.07;;
52534;SDS011;38443;53.164;5.802;2024-01-11T20:11:07;12.13;;;4.35;;
52534;SDS011;38443;53.164;5.802;2024-01-11T20:15:58;8.82;;;4.60;;
52534;SDS011;38443;53.164;5.802;2024-01-11T20:20:49;18.17;;;4.28;;
52534;SDS011;38443;53.164;5.802;2024-01-11T20:23:16;10.05;;;3.90;;
52534;SDS011;38443;53.164;5.802;2024-01-11T20:28:09;4.93;;;3.28;;
52534;SDS011;38443;53.164;5.802;2024-01-11T20:30:34;7.25;;;3.63;;
52534;SDS011;38443;53.164;5.802;2024-01-11T20:35:27;10.52;;;4.47;;
52534;SDS011;38443;53.164;5.802;2024-01-11T20:40:17;8.85;;;3.85;;
52534;SDS011;38443;53.164;5.802;2024-01-11T20:45:08;9.47;;;3.77;;
52534;SDS011;38443;53.164;5.802;2024-01-11T20:49:59;9.95;;;4.05;;
52534;SDS011;38443;53.164;5.802;2024-01-11T20:52:26;14.38;;;4.47;;
52534;SDS011;38443;53.164;5.802;2024-01-11T20:57:17;14.00;;;4.07;;
52534;SDS011;38443;53.164;5.802;2024-01-11T21:02:08;10.60;;;3.65;;
52534;SDS011;38443;53.164;5.802;2024-01-11T21:06:59;9.52;;;3.60;;
52534;SDS011;38443;53.164;5.802;2024-01-11T21:11:50;8.23;;;3.70;;
52534;SDS011;38443;53.164;5.802;2024-01-11T21:16:41;7.97;;;3.38;;
52534;SDS011;38443;53.164;5.802;2024-01-11T21:21:33;8.82;;;3.50;;
52534;SDS011;38443;53.164;5.802;2024-01-11T21:24:03;6.32;;;3.53;;
52534;SDS011;38443;53.164;5.802;2024-01-11T21:26:30;7.50;;;4.25;;
52534;SDS011;38443;53.164;5.802;2024-01-11T21:31:22;10.00;;;3.85;;
52534;SDS011;38443;53.164;5.802;2024-01-11T21:33:48;19.10;;;3.47;;
52534;SDS011;38443;53.164;5.802;2024-01-11T21:38:41;11.90;;;3.70;;
52534;SDS011;38443;53.164;5.802;2024-01-11T21:43:32;8.60;;;3.83;;
52534;SDS011;38443;53.164;5.802;2024-01-11T21:45:59;7.53;;;3.40;;
52534;SDS011;38443;53.164;5.802;2024-01-11T21:50:50;8.75;;;3.80;;
52534;SDS011;38443;53.164;5.802;2024-01-11T21:55:40;5.07;;;3.57;;
52534;SDS011;38443;53.164;5.802;2024-01-11T22:00:31;8.30;;;3.42;;
52534;SDS011;38443;53.164;5.802;2024-01-11T22:05:23;4.07;;;3.23;;
52534;SDS011;38443;53.164;5.802;2024-01-11T22:10:14;11.18;;;4.05;;
52534;SDS011;38443;53.164;5.802;2024-01-11T22:15:04;8.43;;;3.80;;
52534;SDS011;38443;53.164;5.802;2024-01-11T22:19:55;9.77;;;4.10;;
52534;SDS011;38443;53.164;5.802;2024-01-11T22:24:46;17.77;;;7.10;;
52534;SDS011;38443;53.164;5.802;2024-01-11T22:29:36;7.97;;;5.37;;
52534;SDS011;38443;53.164;5.802;2024-01-11T22:34:27;12.05;;;4.40;;
52534;SDS011;38443;53.164;5.802;2024-01-11T22:39:18;16.23;;;5.07;;
52534;SDS011;38443;53.164;5.802;2024-01-11T22:44:08;10.57;;;4.83;;
52534;SDS011;38443;53.164;5.802;2024-01-11T22:48:59;10.55;;;4.65;;
52534;SDS011;38443;53.164;5.802;2024-01-11T22:51:29;15.50;;;4.75;;
52534;SDS011;38443;53.164;5.802;2024-01-11T22:56:19;9.30;;;5.18;;
52534;SDS011;38443;53.164;5.802;2024-01-11T23:01:10;13.93;;;4.87;;
52534;SDS011;38443;53.164;5.802;2024-01-11T23:06:01;8.95;;;4.72;;
52534;SDS011;38443;53.164;5.802;2024-01-11T23:10:52;8.13;;;4.20;;
52534;SDS011;38443;53.164;5.802;2024-01-11T23:15:42;7.17;;;3.97;;
52534;SDS011;38443;53.164;5.802;2024-01-11T23:20:33;9.32;;;4.13;;
52534;SDS011;38443;53.164;5.802;2024-01-11T23:25:24;14.55;;;4.72;;
52534;SDS011;38443;53.164;5.802;2024-01-11T23:30:14;13.87;;;5.73;;
52534;SDS011;38443;53.164;5.802;2024-01-11T23:35:05;10.05;;;4.43;;
52534;SDS011;38443;53.164;5.802;2024-01-11T23:39:56;12.48;;;4.32;;
52534;SDS011;38443;53.164;5.802;2024-01-11T23:44:47;12.65;;;4.47;;
52534;SDS011;38443;53.164;5.802;2024-01-11T23:49:37;7.68;;;3.83;;
52534;SDS011;38443;53.164;5.802;2024-01-11T23:54:28;8.45;;;3.58;;
52534;SDS011;38443;53.164;5.802;2024-01-11T23:59:18;14.80;;;4.28;;
